Time;durP1;ratioP1;P1;durP2;ratioP2;P2;SDS_P1;SDS_P2;PMS_P1;PMS_P2;Temp;Humidity;BMP_temperature;BMP_pressure;BME280_temperature;BME280_humidity;BME280_pressure;Samples;Min_cycle;Max_cycle;Signal;HPM_P1;HPM_P2
2022/02/16 00:02:21;;;;;;;0.82;0.52;;;;;;;;;;5080863;28;20088;-60
2022/02/16 00:04:46;;;;;;;1.45;0.30;;;;;;;;;;5081992;28;20047;-61
2022/02/16 00:07:12;;;;;;;0.35;0.35;;;;;;;;;;5079079;28;20055;-60
2022/02/16 00:09:37;;;;;;;1.67;0.52;;;;;;;;;;5079133;28;20032;-61
2022/02/16 00:12:03;;;;;;;0.73;0.40;;;;;;;;;;5080173;28;20059;-61
2022/02/16 00:14:29;;;;;;;2.80;0.63;;;;;;;;;;5077471;28;20024;-59
2022/02/16 00:16:55;;;;;;;0.68;0.40;;;;;;;;;;5073212;28;20024;-63
2022/02/16 00:19:22;;;;;;;0.90;0.30;;;;;;;;;;5078441;28;20100;-61
2022/02/16 00:21:47;;;;;;;1.38;0.40;;;;;;;;;;5084767;28;20031;-61
2022/02/16 00:24:13;;;;;;;0.20;0.20;;;;;;;;;;5082791;28;20024;-62
2022/02/16 00:26:39;;;;;;;2.08;0.52;;;;;;;;;;5082692;28;20398;-62
2022/02/16 00:29:04;;;;;;;1.60;0.70;;;;;;;;;;5075474;28;20162;-60
2022/02/16 00:31:30;;;;;;;1.38;0.70;;;;;;;;;;5078647;28;20028;-60
2022/02/16 00:33:55;;;;;;;2.17;1.17;;;;;;;;;;5080308;28;20119;-62
2022/02/16 00:36:21;;;;;;;1.80;0.85;;;;;;;;;;5079380;28;20423;-63
2022/02/16 00:38:46;;;;;;;2.30;1.00;;;;;;;;;;5079621;28;20122;-60
2022/02/16 00:41:12;;;;;;;2.17;0.60;;;;;;;;;;5082275;28;20066;-60
2022/02/16 00:43:37;;;;;;;3.72;0.70;;;;;;;;;;5082000;28;20032;-61
2022/02/16 00:46:03;;;;;;;2.67;0.50;;;;;;;;;;5085582;28;20446;-61
2022/02/16 00:48:28;;;;;;;4.93;0.55;;;;;;;;;;5073356;28;20139;-61
2022/02/16 00:50:54;;;;;;;1.35;0.22;;;;;;;;;;5078523;28;20029;-60
2022/02/16 00:53:19;;;;;;;1.85;0.30;;;;;;;;;;5072163;28;20036;-61
2022/02/16 00:55:46;;;;;;;2.58;0.40;;;;;;;;;;5082418;28;20149;-61
2022/02/16 00:58:12;;;;;;;4.32;0.50;;;;;;;;;;5076746;28;20259;-61
2022/02/16 01:00:38;;;;;;;2.45;0.50;;;;;;;;;;5076491;28;20028;-61
2022/02/16 01:03:03;;;;;;;4.72;0.50;;;;;;;;;;5072133;28;20032;-60
2022/02/16 01:05:29;;;;;;;1.92;0.40;;;;;;;;;;5073219;28;20037;-60
2022/02/16 01:07:54;;;;;;;2.30;0.20;;;;;;;;;;5083005;28;20067;-60
2022/02/16 01:10:20;;;;;;;2.65;0.40;;;;;;;;;;5078310;28;20032;-61
2022/02/16 01:12:46;;;;;;;1.75;0.57;;;;;;;;;;5077137;28;20038;-61
2022/02/16 01:15:12;;;;;;;1.90;0.40;;;;;;;;;;5081489;28;20020;-61
2022/02/16 01:17:38;;;;;;;1.55;0.20;;;;;;;;;;5077311;28;20036;-61
2022/02/16 01:20:05;;;;;;;8.90;0.63;;;;;;;;;;5077335;28;20024;-60
2022/02/16 01:22:31;;;;;;;4.55;0.80;;;;;;;;;;5079818;28;20040;-61
2022/02/16 01:24:56;;;;;;;1.83;0.82;;;;;;;;;;5080881;28;20031;-59
2022/02/16 01:27:22;;;;;;;3.65;0.40;;;;;;;;;;5082296;28;20028;-62
2022/02/16 01:29:47;;;;;;;1.88;0.52;;;;;;;;;;5081957;28;20632;-61
2022/02/16 01:32:13;;;;;;;3.95;0.50;;;;;;;;;;5079676;28;20047;-60
2022/02/16 01:34:39;;;;;;;2.70;0.47;;;;;;;;;;5079105;28;20036;-60
2022/02/16 01:37:04;;;;;;;3.80;0.47;;;;;;;;;;5071646;28;20119;-62
2022/02/16 01:39:30;;;;;;;1.98;0.35;;;;;;;;;;5079270;28;20048;-59
2022/02/16 01:41:55;;;;;;;4.00;0.68;;;;;;;;;;5078481;28;20034;-59
2022/02/16 01:44:22;;;;;;;8.20;1.23;;;;;;;;;;5079304;28;20039;-61
2022/02/16 01:46:59;;;;;;;3.28;0.40;;;;;;;;;;5081136;28;20024;-60
2022/02/16 01:49:24;;;;;;;2.42;0.50;;;;;;;;;;5075883;28;20122;-61
2022/02/16 01:51:50;;;;;;;13.00;0.60;;;;;;;;;;5079544;28;20127;-60
2022/02/16 01:54:15;;;;;;;6.68;0.95;;;;;;;;;;5075882;28;20509;-60
2022/02/16 01:56:47;;;;;;;5.78;1.20;;;;;;;;;;5079014;28;20024;-62
2022/02/16 01:59:16;;;;;;;4.90;1.17;;;;;;;;;;5078124;28;20030;-61
2022/02/16 02:01:43;;;;;;;6.95;1.38;;;;;;;;;;5080444;28;20074;-58
2022/02/16 02:04:08;;;;;;;2.97;0.75;;;;;;;;;;5075794;28;20024;-60
2022/02/16 02:06:34;;;;;;;4.78;0.90;;;;;;;;;;5074075;28;20506;-62
2022/02/16 02:09:00;;;;;;;6.70;0.60;;;;;;;;;;5076474;28;20024;-60
2022/02/16 02:11:25;;;;;;;7.80;1.33;;;;;;;;;;5077666;28;20395;-59
2022/02/16 02:13:59;;;;;;;6.63;1.40;;;;;;;;;;5078818;28;20437;-62
2022/02/16 02:16:24;;;;;;;6.25;1.15;;;;;;;;;;5080554;28;20085;-62
2022/02/16 02:18:50;;;;;;;9.27;1.77;;;;;;;;;;5080034;28;20457;-62
2022/02/16 02:21:17;;;;;;;11.73;1.67;;;;;;;;;;5075078;28;20428;-61
2022/02/16 02:23:43;;;;;;;9.63;1.42;;;;;;;;;;5076039;28;20036;-61
2022/02/16 02:26:09;;;;;;;11.30;2.33;;;;;;;;;;5075277;28;20052;-61
2022/02/16 02:28:34;;;;;;;10.93;1.70;;;;;;;;;;5080469;28;20045;-60
2022/02/16 02:31:00;;;;;;;13.30;1.60;;;;;;;;;;5071441;28;20034;-59
2022/02/16 02:33:26;;;;;;;16.67;2.30;;;;;;;;;;5079996;28;20127;-61
2022/02/16 02:35:52;;;;;;;21.83;2.20;;;;;;;;;;5076665;28;20185;-60
2022/02/16 02:38:18;;;;;;;22.10;1.75;;;;;;;;;;5076222;28;20024;-61
2022/02/16 02:40:43;;;;;;;16.17;2.00;;;;;;;;;;5074986;28;20531;-60
2022/02/16 02:43:09;;;;;;;16.02;2.53;;;;;;;;;;5080473;28;20444;-59
2022/02/16 02:45:34;;;;;;;13.85;2.67;;;;;;;;;;5075251;28;20471;-60
2022/02/16 02:48:00;;;;;;;22.85;2.45;;;;;;;;;;5077071;28;20413;-61
2022/02/16 02:50:26;;;;;;;16.35;2.10;;;;;;;;;;5075823;28;20044;-61
2022/02/16 02:52:51;;;;;;;25.48;2.78;;;;;;;;;;5077547;28;20406;-60
2022/02/16 02:55:17;;;;;;;22.92;3.50;;;;;;;;;;5075591;28;20032;-62
2022/02/16 02:57:43;;;;;;;32.88;3.30;;;;;;;;;;5078440;28;20526;-61
2022/02/16 03:00:11;;;;;;;34.65;3.22;;;;;;;;;;5083113;28;20470;-61
2022/02/16 03:02:37;;;;;;;33.42;4.00;;;;;;;;;;5079610;28;20109;-60
2022/02/16 03:05:03;;;;;;;26.80;3.88;;;;;;;;;;5078387;28;20028;-63
2022/02/16 03:07:28;;;;;;;34.15;5.20;;;;;;;;;;5077514;28;20043;-60
2022/02/16 03:09:54;;;;;;;33.53;3.55;;;;;;;;;;5075431;28;20082;-61
2022/02/16 03:12:20;;;;;;;26.13;4.70;;;;;;;;;;5079552;28;20052;-61
2022/02/16 03:14:45;;;;;;;28.77;4.13;;;;;;;;;;5074971;28;20497;-60
2022/02/16 03:17:11;;;;;;;40.80;4.63;;;;;;;;;;5074940;28;20016;-61
2022/02/16 03:19:36;;;;;;;33.95;2.72;;;;;;;;;;5075911;28;20510;-61
2022/02/16 03:22:03;;;;;;;29.77;4.85;;;;;;;;;;5078096;28;20028;-62
2022/02/16 03:24:28;;;;;;;32.40;4.10;;;;;;;;;;5073035;28;20032;-60
2022/02/16 03:26:55;;;;;;;37.20;5.57;;;;;;;;;;5077504;28;20377;-61
2022/02/16 03:29:21;;;;;;;30.60;4.18;;;;;;;;;;5076507;28;20036;-61
2022/02/16 03:31:49;;;;;;;35.05;4.43;;;;;;;;;;5081866;28;20652;-61
2022/02/16 03:34:16;;;;;;;32.97;5.28;;;;;;;;;;5079952;28;20094;-61
2022/02/16 03:36:41;;;;;;;36.60;4.75;;;;;;;;;;5075845;28;20023;-60
2022/02/16 03:39:08;;;;;;;37.78;4.93;;;;;;;;;;5076804;28;20040;-61
2022/02/16 03:41:33;;;;;;;48.92;5.13;;;;;;;;;;5070041;28;20483;-62
2022/02/16 03:43:59;;;;;;;45.83;5.72;;;;;;;;;;5077744;28;20047;-60
2022/02/16 03:46:24;;;;;;;46.53;7.35;;;;;;;;;;5072468;28;20153;-60
2022/02/16 03:48:49;;;;;;;54.35;5.20;;;;;;;;;;5072681;28;20137;-60
2022/02/16 03:51:18;;;;;;;29.17;4.50;;;;;;;;;;5079652;28;20032;-61
2022/02/16 03:53:44;;;;;;;50.30;5.30;;;;;;;;;;5073832;28;20510;-60
2022/02/16 03:56:10;;;;;;;44.10;4.90;;;;;;;;;;5075097;28;20031;-60
2022/02/16 03:58:35;;;;;;;62.42;8.35;;;;;;;;;;5077584;28;20037;-56
2022/02/16 04:01:01;;;;;;;37.35;4.85;;;;;;;;;;5078723;28;20090;-60
2022/02/16 04:03:26;;;;;;;64.65;8.25;;;;;;;;;;5078987;28;20051;-60
2022/02/16 04:05:52;;;;;;;64.63;9.52;;;;;;;;;;5075720;28;20036;-61
2022/02/16 04:08:17;;;;;;;49.22;6.97;;;;;;;;;;5076914;28;20024;-61
2022/02/16 04:10:43;;;;;;;50.22;8.73;;;;;;;;;;5074405;28;20032;-60
2022/02/16 04:13:08;;;;;;;66.13;9.07;;;;;;;;;;5079591;28;20032;-61
2022/02/16 04:15:35;;;;;;;50.47;6.85;;;;;;;;;;5077249;28;20024;-60
2022/02/16 04:18:01;;;;;;;53.53;8.63;;;;;;;;;;5074308;28;20379;-61
2022/02/16 04:20:27;;;;;;;66.78;7.40;;;;;;;;;;5076213;28;20085;-61
2022/02/16 04:22:53;;;;;;;46.22;6.93;;;;;;;;;;5075769;28;20032;-61
2022/02/16 04:25:18;;;;;;;70.28;8.00;;;;;;;;;;5071923;28;20044;-61
2022/02/16 04:27:45;;;;;;;61.53;6.22;;;;;;;;;;5077045;28;20040;-61
2022/02/16 04:30:11;;;;;;;54.63;8.43;;;;;;;;;;5082350;28;20051;-60
2022/02/16 04:32:38;;;;;;;47.25;5.57;;;;;;;;;;5080251;28;20036;-61
2022/02/16 04:35:04;;;;;;;69.72;6.60;;;;;;;;;;5086398;28;20016;-61
2022/02/16 04:37:30;;;;;;;60.40;6.43;;;;;;;;;;5079917;28;20407;-62
2022/02/16 04:39:56;;;;;;;47.97;6.20;;;;;;;;;;5079481;28;20118;-61
2022/02/16 04:42:22;;;;;;;38.40;6.57;;;;;;;;;;5077753;28;20111;-61
2022/02/16 04:44:48;;;;;;;44.10;5.50;;;;;;;;;;5074181;28;20162;-61
2022/02/16 04:47:13;;;;;;;49.17;5.55;;;;;;;;;;5080367;28;20406;-59
2022/02/16 04:49:39;;;;;;;39.13;5.70;;;;;;;;;;5082048;28;20110;-61
2022/02/16 04:52:04;;;;;;;65.90;6.88;;;;;;;;;;5078397;28;20448;-61
2022/02/16 04:54:31;;;;;;;56.50;9.05;;;;;;;;;;5077171;28;20509;-62
2022/02/16 04:56:57;;;;;;;46.42;6.22;;;;;;;;;;5080690;28;20028;-60
2022/02/16 04:59:22;;;;;;;46.03;6.13;;;;;;;;;;5084127;28;20519;-61
2022/02/16 05:01:48;;;;;;;70.95;8.65;;;;;;;;;;5073846;28;20056;-61
2022/02/16 05:04:13;;;;;;;39.22;6.28;;;;;;;;;;5078997;28;20032;-61
2022/02/16 05:06:41;;;;;;;59.38;7.22;;;;;;;;;;5082478;28;20436;-61
2022/02/16 05:09:10;;;;;;;53.17;6.68;;;;;;;;;;5075213;28;20043;-60
2022/02/16 05:11:35;;;;;;;54.30;7.40;;;;;;;;;;5073637;28;20032;-59
2022/02/16 05:14:01;;;;;;;62.47;6.95;;;;;;;;;;5079110;28;20406;-61
2022/02/16 05:16:26;;;;;;;56.78;7.45;;;;;;;;;;5076240;28;20479;-61
2022/02/16 05:18:54;;;;;;;46.90;5.75;;;;;;;;;;5083527;28;20509;-60
2022/02/16 05:21:20;;;;;;;59.33;7.32;;;;;;;;;;5078999;28;20074;-60
2022/02/16 05:23:45;;;;;;;56.30;7.45;;;;;;;;;;5079096;28;20118;-62
2022/02/16 05:26:11;;;;;;;55.72;6.88;;;;;;;;;;5078972;28;20079;-62
2022/02/16 05:28:36;;;;;;;52.92;7.90;;;;;;;;;;5077982;28;20263;-61
2022/02/16 05:31:03;;;;;;;49.42;6.65;;;;;;;;;;5080430;28;20020;-61
2022/02/16 05:33:29;;;;;;;37.97;6.38;;;;;;;;;;5077722;28;20558;-60
2022/02/16 05:35:55;;;;;;;51.88;5.88;;;;;;;;;;5077758;28;20085;-62
2022/02/16 05:38:20;;;;;;;40.20;8.15;;;;;;;;;;5076297;28;20029;-60
2022/02/16 05:40:46;;;;;;;54.38;9.25;;;;;;;;;;5071886;28;20102;-61
2022/02/16 05:43:15;;;;;;;58.20;7.15;;;;;;;;;;5078587;28;20107;-62
2022/02/16 05:45:42;;;;;;;65.85;8.30;;;;;;;;;;5076282;28;20070;-60
2022/02/16 05:48:08;;;;;;;47.90;5.97;;;;;;;;;;5073522;28;20040;-61
2022/02/16 05:50:33;;;;;;;54.85;7.50;;;;;;;;;;5077293;28;20028;-62
2022/02/16 05:52:59;;;;;;;56.17;8.13;;;;;;;;;;5074688;28;20038;-61
2022/02/16 05:55:25;;;;;;;61.78;8.80;;;;;;;;;;5080307;28;20139;-61
2022/02/16 05:57:50;;;;;;;62.28;8.07;;;;;;;;;;5080363;28;20042;-61
2022/02/16 06:00:16;;;;;;;85.50;9.50;;;;;;;;;;5071257;28;20539;-60
2022/02/16 06:02:42;;;;;;;63.45;7.93;;;;;;;;;;5080735;28;20559;-61
2022/02/16 06:05:08;;;;;;;57.03;6.90;;;;;;;;;;5073023;28;20390;-61
2022/02/16 06:07:33;;;;;;;60.85;7.30;;;;;;;;;;5078174;28;20032;-61
2022/02/16 06:09:59;;;;;;;70.82;8.75;;;;;;;;;;5078403;28;20031;-61
2022/02/16 06:12:24;;;;;;;56.33;7.05;;;;;;;;;;5075786;28;20085;-60
2022/02/16 06:14:50;;;;;;;45.33;6.88;;;;;;;;;;5081611;28;20060;-61
2022/02/16 06:17:16;;;;;;;84.13;9.30;;;;;;;;;;5077068;28;20032;-62
2022/02/16 06:19:41;;;;;;;68.47;10.02;;;;;;;;;;5081192;28;20127;-61
2022/02/16 06:22:08;;;;;;;56.30;8.15;;;;;;;;;;5079316;28;20032;-61
2022/02/16 06:24:34;;;;;;;79.65;8.50;;;;;;;;;;5081632;28;20023;-61
2022/02/16 06:26:59;;;;;;;70.20;9.10;;;;;;;;;;5080787;28;20056;-61
2022/02/16 06:29:25;;;;;;;64.43;9.60;;;;;;;;;;5080852;28;20070;-63
2022/02/16 06:31:50;;;;;;;69.03;7.82;;;;;;;;;;5078920;28;20044;-58
2022/02/16 06:34:15;;;;;;;56.25;6.95;;;;;;;;;;5075636;28;20032;-61
2022/02/16 06:36:41;;;;;;;59.92;8.10;;;;;;;;;;5078580;28;20367;-62
2022/02/16 06:39:06;;;;;;;85.50;11.60;;;;;;;;;;5081769;28;20466;-60
2022/02/16 06:41:32;;;;;;;56.17;7.85;;;;;;;;;;5080687;28;20044;-60
2022/02/16 06:43:57;;;;;;;81.72;11.10;;;;;;;;;;5072815;28;20030;-60
2022/02/16 06:46:23;;;;;;;59.45;10.38;;;;;;;;;;5073209;28;20123;-61
2022/02/16 06:48:48;;;;;;;53.00;6.80;;;;;;;;;;5076893;28;20028;-60
2022/02/16 06:51:17;;;;;;;69.28;9.00;;;;;;;;;;5073560;28;20025;-62
2022/02/16 06:53:43;;;;;;;81.95;9.20;;;;;;;;;;5077732;28;20044;-61
2022/02/16 06:56:08;;;;;;;52.75;7.72;;;;;;;;;;5071689;28;20016;-61
2022/02/16 06:58:34;;;;;;;60.55;7.70;;;;;;;;;;5075712;28;20029;-62
2022/02/16 07:00:59;;;;;;;66.00;7.25;;;;;;;;;;5079214;28;20070;-60
2022/02/16 07:03:25;;;;;;;47.35;7.57;;;;;;;;;;5076250;28;20093;-61
2022/02/16 07:05:50;;;;;;;56.00;7.57;;;;;;;;;;5079097;28;20036;-60
2022/02/16 07:08:16;;;;;;;52.72;7.75;;;;;;;;;;5076450;28;20378;-61
2022/02/16 07:10:42;;;;;;;66.95;5.75;;;;;;;;;;5078017;28;20475;-61
2022/02/16 07:13:07;;;;;;;50.03;7.32;;;;;;;;;;5081287;28;20081;-60
2022/02/16 07:15:32;;;;;;;75.85;8.18;;;;;;;;;;5075517;28;20055;-61
2022/02/16 07:18:01;;;;;;;63.30;8.35;;;;;;;;;;5081615;28;20043;-61
2022/02/16 07:20:27;;;;;;;73.40;7.20;;;;;;;;;;5078046;28;20513;-60
2022/02/16 07:22:52;;;;;;;69.32;8.90;;;;;;;;;;5075200;28;20032;-61
2022/02/16 07:25:18;;;;;;;53.70;6.97;;;;;;;;;;5078434;28;20047;-61
2022/02/16 07:27:44;;;;;;;75.57;9.07;;;;;;;;;;5077018;28;20392;-60
2022/02/16 07:30:11;;;;;;;56.80;8.30;;;;;;;;;;5078003;28;20058;-61
2022/02/16 07:32:38;;;;;;;46.65;6.57;;;;;;;;;;5082793;28;20120;-61
2022/02/16 07:35:05;;;;;;;52.92;6.13;;;;;;;;;;5078039;28;20056;-60
2022/02/16 07:37:30;;;;;;;50.13;7.18;;;;;;;;;;5075441;28;20410;-61
2022/02/16 07:39:57;;;;;;;88.47;9.48;;;;;;;;;;5072600;28;20028;-60
2022/02/16 07:42:23;;;;;;;95.63;9.40;;;;;;;;;;5072752;28;20044;-60
2022/02/16 07:44:48;;;;;;;64.38;9.05;;;;;;;;;;5073219;28;20031;-61
2022/02/16 07:47:14;;;;;;;75.22;8.48;;;;;;;;;;5079613;28;20030;-60
2022/02/16 07:49:39;;;;;;;78.18;8.15;;;;;;;;;;5073296;28;20036;-60
2022/02/16 07:52:05;;;;;;;50.95;7.70;;;;;;;;;;5078562;28;20047;-60
2022/02/16 07:54:31;;;;;;;64.93;7.47;;;;;;;;;;5070233;28;20246;-61
2022/02/16 07:56:56;;;;;;;64.80;8.25;;;;;;;;;;5075658;28;20031;-61
2022/02/16 07:59:23;;;;;;;58.42;8.23;;;;;;;;;;5073694;28;20445;-62
2022/02/16 08:01:49;;;;;;;52.40;7.20;;;;;;;;;;5074769;28;20081;-62
2022/02/16 08:04:17;;;;;;;54.08;7.80;;;;;;;;;;5077927;28;20070;-59
2022/02/16 08:06:47;;;;;;;50.72;6.45;;;;;;;;;;5080820;28;20051;-61
2022/02/16 08:09:14;;;;;;;61.35;8.15;;;;;;;;;;5073698;28;20036;-62
2022/02/16 08:11:41;;;;;;;68.22;7.00;;;;;;;;;;5063002;28;20032;-61
2022/02/16 08:14:07;;;;;;;62.92;7.72;;;;;;;;;;5085111;28;20043;-62
2022/02/16 08:16:36;;;;;;;55.22;8.85;;;;;;;;;;5082025;28;20033;-62
2022/02/16 08:19:04;;;;;;;63.55;7.90;;;;;;;;;;5084009;28;20038;-62
2022/02/16 08:21:30;;;;;;;54.60;6.60;;;;;;;;;;5082574;28;20027;-60
2022/02/16 08:23:55;;;;;;;46.15;6.65;;;;;;;;;;5081242;28;20032;-60
2022/02/16 08:26:21;;;;;;;72.63;7.97;;;;;;;;;;5085597;28;20051;-60
2022/02/16 08:28:47;;;;;;;67.05;8.60;;;;;;;;;;5083560;28;20115;-60
2022/02/16 08:31:13;;;;;;;78.13;7.82;;;;;;;;;;5085027;28;20089;-61
2022/02/16 08:33:38;;;;;;;66.60;8.02;;;;;;;;;;5078663;28;20038;-60
2022/02/16 08:36:05;;;;;;;46.83;7.80;;;;;;;;;;5078985;28;20028;-60
2022/02/16 08:38:31;;;;;;;77.70;7.53;;;;;;;;;;5085556;28;20028;-61
2022/02/16 08:40:57;;;;;;;67.57;8.27;;;;;;;;;;5086922;28;20055;-60
2022/02/16 08:43:22;;;;;;;84.50;8.60;;;;;;;;;;5076169;28;20039;-58
2022/02/16 08:45:48;;;;;;;67.35;8.60;;;;;;;;;;5080426;28;20036;-60
2022/02/16 08:48:13;;;;;;;66.35;8.48;;;;;;;;;;5082103;28;20060;-60
2022/02/16 08:50:39;;;;;;;49.67;7.60;;;;;;;;;;5084937;28;20429;-60
2022/02/16 08:53:04;;;;;;;51.20;6.30;;;;;;;;;;5079218;28;20035;-61
2022/02/16 08:55:30;;;;;;;65.03;10.45;;;;;;;;;;5084060;28;20036;-60
2022/02/16 08:57:56;;;;;;;64.95;8.75;;;;;;;;;;5083214;28;20475;-58
2022/02/16 09:00:21;;;;;;;60.95;8.45;;;;;;;;;;5082679;28;20028;-61
2022/02/16 09:02:47;;;;;;;69.03;8.25;;;;;;;;;;5079083;28;20501;-62
2022/02/16 09:05:13;;;;;;;62.15;8.75;;;;;;;;;;5086155;28;20024;-61
2022/02/16 09:07:38;;;;;;;56.13;5.65;;;;;;;;;;5083815;28;21478;-61
2022/02/16 09:10:08;;;;;;;64.60;9.90;;;;;;;;;;5082251;28;20446;-63
2022/02/16 09:12:34;;;;;;;62.47;6.38;;;;;;;;;;5083796;28;20044;-61
2022/02/16 09:15:00;;;;;;;51.35;7.63;;;;;;;;;;5084703;28;20039;-61
2022/02/16 09:17:26;;;;;;;51.78;6.50;;;;;;;;;;5085808;28;20473;-61
2022/02/16 09:19:53;;;;;;;62.72;8.35;;;;;;;;;;5085808;28;20028;-61
2022/02/16 09:22:19;;;;;;;54.67;7.47;;;;;;;;;;5080859;28;20478;-61
2022/02/16 09:24:45;;;;;;;49.38;7.82;;;;;;;;;;5080577;28;20502;-61
2022/02/16 09:27:13;;;;;;;43.13;5.03;;;;;;;;;;5083499;28;20040;-62
2022/02/16 09:29:39;;;;;;;48.55;5.93;;;;;;;;;;5084175;28;20521;-62
2022/02/16 09:32:05;;;;;;;32.90;4.57;;;;;;;;;;5085516;28;20032;-61
2022/02/16 09:34:31;;;;;;;40.17;4.53;;;;;;;;;;5087182;28;20278;-61
2022/02/16 09:36:57;;;;;;;32.80;4.97;;;;;;;;;;5083397;28;20021;-61
2022/02/16 09:39:22;;;;;;;26.65;3.58;;;;;;;;;;5080165;28;20032;-60
2022/02/16 09:41:48;;;;;;;45.83;4.07;;;;;;;;;;5079932;28;20036;-60
2022/02/16 09:44:17;;;;;;;45.60;7.53;;;;;;;;;;5072101;28;20024;-61
2022/02/16 09:46:42;;;;;;;34.72;4.43;;;;;;;;;;5078009;28;20039;-60
2022/02/16 09:49:11;;;;;;;30.00;3.95;;;;;;;;;;5079966;28;20394;-60
2022/02/16 09:51:37;;;;;;;25.27;3.75;;;;;;;;;;5079707;28;20110;-60
2022/02/16 09:54:03;;;;;;;33.28;4.43;;;;;;;;;;5083144;28;20115;-60
2022/02/16 09:56:28;;;;;;;27.63;4.57;;;;;;;;;;5081838;28;20070;-60
2022/02/16 09:58:54;;;;;;;20.23;3.58;;;;;;;;;;5076160;28;20517;-60
2022/02/16 10:01:19;;;;;;;38.67;5.38;;;;;;;;;;5079033;28;20044;-60
2022/02/16 10:04:09;;;;;;;27.42;3.63;;;;;;;;;;5077791;28;20073;-60
2022/02/16 10:06:38;;;;;;;21.83;3.20;;;;;;;;;;5075340;28;20052;-60
2022/02/16 10:09:05;;;;;;;35.25;3.80;;;;;;;;;;5080542;28;20932;-61
2022/02/16 10:11:31;;;;;;;22.58;3.33;;;;;;;;;;5078824;28;20123;-59
2022/02/16 10:14:16;;;;;;;26.92;3.85;;;;;;;;;;5075333;28;20124;-60
2022/02/16 10:16:42;;;;;;;34.83;4.20;;;;;;;;;;5075060;28;20063;-61
2022/02/16 10:19:08;;;;;;;19.58;2.80;;;;;;;;;;5075300;28;20028;-60
2022/02/16 10:21:33;;;;;;;25.48;3.35;;;;;;;;;;5083474;28;20398;-60
2022/02/16 10:23:59;;;;;;;25.20;3.95;;;;;;;;;;5080522;28;20040;-61
2022/02/16 10:26:50;;;;;;;20.77;2.55;;;;;;;;;;5079224;28;20407;-61
2022/02/16 10:29:35;;;;;;;16.48;2.47;;;;;;;;;;5082306;28;20121;-59
2022/02/16 10:32:01;;;;;;;15.73;2.38;;;;;;;;;;5079919;28;20572;-61
2022/02/16 10:34:54;;;;;;;15.10;1.83;;;;;;;;;;5082570;28;20085;-60
2022/02/16 10:37:20;;;;;;;;;;;;;;;;;;5076000;28;20024;-62
2022/02/16 10:40:00;;;;;;;19.10;2.75;;;;;;;;;;5078683;28;19916;-60
2022/02/16 10:42:26;;;;;;;14.13;2.08;;;;;;;;;;5079526;28;20040;-60
2022/02/16 10:45:10;;;;;;;11.48;1.83;;;;;;;;;;5082649;28;20465;-61
2022/02/16 10:47:54;;;;;;;7.07;1.17;;;;;;;;;;5081686;28;20126;-60
2022/02/16 10:50:22;;;;;;;11.35;1.52;;;;;;;;;;5089605;28;20032;-61
2022/02/16 10:52:59;;;;;;;4.65;0.70;;;;;;;;;;5073146;28;20036;-60
2022/02/16 10:55:42;;;;;;;4.70;1.50;;;;;;;;;;5075273;28;20077;-61
2022/02/16 10:58:13;;;;;;;4.63;0.95;;;;;;;;;;5083869;28;20030;-61
2022/02/16 11:00:43;;;;;;;1.02;0.30;;;;;;;;;;5081269;28;20397;-59
2022/02/16 11:03:11;;;;;;;4.47;0.68;;;;;;;;;;5079179;28;20077;-60
2022/02/16 11:05:42;;;;;;;0.95;0.30;;;;;;;;;;5082485;28;20134;-60
2022/02/16 11:08:13;;;;;;;1.75;0.40;;;;;;;;;;5083538;28;20028;-60
2022/02/16 11:10:41;;;;;;;1.67;0.30;;;;;;;;;;5080905;28;20052;-60
2022/02/16 11:13:08;;;;;;;1.48;0.40;;;;;;;;;;5080235;28;20031;-60
2022/02/16 11:15:34;;;;;;;1.23;0.47;;;;;;;;;;5081645;28;20390;-60
2022/02/16 11:18:14;;;;;;;1.65;0.38;;;;;;;;;;5077563;28;20036;-60
2022/02/16 11:20:40;;;;;;;1.15;0.40;;;;;;;;;;5084303;28;20027;-59
2022/02/16 11:23:06;;;;;;;0.15;0.10;;;;;;;;;;5079286;28;20042;-61
2022/02/16 11:25:38;;;;;;;0.93;0.30;;;;;;;;;;5080883;28;20568;-61
2022/02/16 11:28:11;;;;;;;0.57;0.25;;;;;;;;;;5071773;28;20095;-60
2022/02/16 11:30:40;;;;;;;1.75;0.20;;;;;;;;;;5073025;28;20101;-60
2022/02/16 11:33:13;;;;;;;1.38;0.40;;;;;;;;;;5077516;28;20088;-60
2022/02/16 11:35:55;;;;;;;1.88;0.30;;;;;;;;;;5071959;28;20498;-60
2022/02/16 11:38:24;;;;;;;1.55;0.28;;;;;;;;;;5076801;28;20031;-60
2022/02/16 11:40:57;;;;;;;1.67;0.30;;;;;;;;;;5079303;28;20448;-59
2022/02/16 11:43:54;;;;;;;1.60;0.20;;;;;;;;;;5078724;28;20036;-61
2022/02/16 11:46:47;;;;;;;1.80;0.32;;;;;;;;;;5071421;28;20020;-59
2022/02/16 11:49:27;;;;;;;1.15;0.20;;;;;;;;;;5082430;28;20487;-60
2022/02/16 11:51:53;;;;;;;0.35;0.30;;;;;;;;;;5076926;28;20059;-59
2022/02/16 11:54:45;;;;;;;1.00;0.30;;;;;;;;;;5076935;28;20032;-59
2022/02/16 11:57:47;;;;;;;0.13;0.13;;;;;;;;;;5076589;28;20135;-59
2022/02/16 12:00:15;;;;;;;1.83;0.30;;;;;;;;;;5069443;28;20044;-59
2022/02/16 12:03:17;;;;;;;0.85;0.32;;;;;;;;;;5083032;28;20035;-60
2022/02/16 12:05:51;;;;;;;0.52;0.30;;;;;;;;;;5076230;28;20036;-60
2022/02/16 12:08:36;;;;;;;2.58;0.30;;;;;;;;;;5078812;28;20042;-61
2022/02/16 12:11:20;;;;;;;1.17;0.25;;;;;;;;;;5075928;28;20064;-61
2022/02/16 12:13:49;;;;;;;0.30;0.20;;;;;;;;;;5074654;28;20030;-62
2022/02/16 12:16:20;;;;;;;0.75;0.20;;;;;;;;;;5075052;28;20016;-61
2022/02/16 12:18:49;;;;;;;1.25;0.25;;;;;;;;;;5079562;28;20174;-60
2022/02/16 12:21:39;;;;;;;1.25;0.20;;;;;;;;;;5082576;28;20024;-60
2022/02/16 12:24:06;;;;;;;2.78;0.40;;;;;;;;;;5074325;28;20405;-60
2022/02/16 12:26:39;;;;;;;1.77;0.50;;;;;;;;;;5081104;28;20046;-60
2022/02/16 12:29:17;;;;;;;1.35;0.47;;;;;;;;;;5074103;28;20103;-61
2022/02/16 12:31:55;;;;;;;1.27;0.40;;;;;;;;;;5078286;28;20109;-60
2022/02/16 12:34:30;;;;;;;1.73;0.47;;;;;;;;;;5079518;28;20077;-60
2022/02/16 12:37:07;;;;;;;4.63;0.50;;;;;;;;;;5079833;28;20100;-60
2022/02/16 12:39:33;;;;;;;2.50;0.65;;;;;;;;;;5076634;28;20030;-58
2022/02/16 12:42:10;;;;;;;4.40;0.68;;;;;;;;;;5076690;28;20036;-60
2022/02/16 12:44:38;;;;;;;5.57;0.90;;;;;;;;;;5078775;28;20039;-59
2022/02/16 12:47:06;;;;;;;12.13;0.93;;;;;;;;;;5074763;28;20028;-60
2022/02/16 12:49:32;;;;;;;4.40;0.70;;;;;;;;;;5077729;28;20051;-60
2022/02/16 12:52:00;;;;;;;6.90;0.93;;;;;;;;;;5080298;28;20020;-60
2022/02/16 12:54:30;;;;;;;7.68;1.60;;;;;;;;;;5073730;28;20028;-60
2022/02/16 12:57:00;;;;;;;7.80;1.42;;;;;;;;;;5082440;28;20031;-60
2022/02/16 12:59:30;;;;;;;5.10;1.17;;;;;;;;;;5080585;28;20671;-59
2022/02/16 13:01:58;;;;;;;18.15;2.00;;;;;;;;;;5080475;28;20104;-60
2022/02/16 13:04:25;;;;;;;11.18;1.65;;;;;;;;;;5082389;28;20028;-59
2022/02/16 13:06:55;;;;;;;10.00;1.50;;;;;;;;;;5078164;28;20043;-60
2022/02/16 13:09:27;;;;;;;12.70;2.70;;;;;;;;;;5080503;28;20185;-60
2022/02/16 13:11:57;;;;;;;14.20;1.85;;;;;;;;;;5083994;28;20483;-60
2022/02/16 13:14:28;;;;;;;14.38;1.92;;;;;;;;;;5081434;28;20504;-59
2022/02/16 13:17:03;;;;;;;12.57;1.52;;;;;;;;;;5084667;28;20024;-59
2022/02/16 13:19:51;;;;;;;9.77;1.42;;;;;;;;;;5084839;28;20115;-60
2022/02/16 13:22:19;;;;;;;14.65;1.70;;;;;;;;;;5077991;28;20036;-59
2022/02/16 13:24:57;;;;;;;7.97;2.50;;;;;;;;;;5082470;28;20502;-59
2022/02/16 13:27:25;;;;;;;16.30;2.03;;;;;;;;;;5080309;28;20105;-58
2022/02/16 13:30:05;;;;;;;15.95;1.67;;;;;;;;;;5085731;28;20138;-59
2022/02/16 13:32:33;;;;;;;8.88;1.50;;;;;;;;;;5077889;28;20442;-61
2022/02/16 13:35:00;;;;;;;8.30;1.85;;;;;;;;;;5085497;28;20035;-59
2022/02/16 13:37:26;;;;;;;15.52;2.45;;;;;;;;;;5077993;28;20533;-58
2022/02/16 13:40:09;;;;;;;20.13;3.30;;;;;;;;;;5077530;28;20035;-59
2022/02/16 13:42:54;;;;;;;13.57;2.92;;;;;;;;;;5082788;28;20032;-59
2022/02/16 13:45:30;;;;;;;28.65;3.28;;;;;;;;;;5081965;28;20030;-59
2022/02/16 13:47:56;;;;;;;22.77;2.85;;;;;;;;;;5086460;28;20024;-59
2022/02/16 13:50:33;;;;;;;14.98;3.33;;;;;;;;;;5077077;28;20035;-59
2022/02/16 13:53:00;;;;;;;20.23;3.35;;;;;;;;;;5076741;28;20369;-60
2022/02/16 13:55:27;;;;;;;14.32;2.00;;;;;;;;;;5079882;28;20048;-59
2022/02/16 13:58:05;;;;;;;11.90;2.25;;;;;;;;;;5086675;28;20012;-59
2022/02/16 14:00:30;;;;;;;25.20;2.72;;;;;;;;;;5080815;28;20121;-59
2022/02/16 14:03:10;;;;;;;21.70;3.40;;;;;;;;;;5076587;28;20074;-57
2022/02/16 14:05:37;;;;;;;19.10;3.65;;;;;;;;;;5080978;28;20288;-60
2022/02/16 14:08:04;;;;;;;11.95;2.03;;;;;;;;;;5078757;28;20426;-59
2022/02/16 14:10:32;;;;;;;20.27;2.33;;;;;;;;;;5077621;28;20832;-60
2022/02/16 14:12:58;;;;;;;27.42;3.67;;;;;;;;;;5074873;28;20119;-59
2022/02/16 14:15:24;;;;;;;9.77;1.63;;;;;;;;;;5077023;28;20127;-58
2022/02/16 14:17:50;;;;;;;14.85;2.78;;;;;;;;;;5083228;28;20025;-61
2022/02/16 14:20:17;;;;;;;22.15;3.30;;;;;;;;;;5079686;28;20044;-59
2022/02/16 14:22:43;;;;;;;20.60;2.60;;;;;;;;;;5077666;28;20076;-60
2022/02/16 14:25:09;;;;;;;9.70;1.63;;;;;;;;;;5082216;28;20481;-59
2022/02/16 14:27:34;;;;;;;33.40;2.78;;;;;;;;;;5078845;28;20032;-61
2022/02/16 14:30:00;;;;;;;31.30;3.03;;;;;;;;;;5083264;28;20149;-61
2022/02/16 14:32:26;;;;;;;23.50;2.92;;;;;;;;;;5081177;28;20108;-59
2022/02/16 14:34:58;;;;;;;20.17;2.60;;;;;;;;;;5078278;28;20040;-59
2022/02/16 14:37:26;;;;;;;24.17;3.20;;;;;;;;;;5080057;28;20024;-59
2022/02/16 14:39:52;;;;;;;16.90;3.47;;;;;;;;;;5073998;28;20351;-58